createdAt,value
2023-02-16T00:02:13.813Z,6.30
2023-02-16T00:04:41.887Z,6.00
2023-02-16T00:07:10.004Z,6.40
2023-02-16T00:09:39.393Z,5.50
2023-02-16T00:12:36.367Z,5.50
2023-02-16T00:15:16.839Z,6.30
2023-02-16T00:17:44.869Z,5.50
2023-02-16T00:20:16.288Z,5.50
2023-02-16T00:22:44.537Z,5.40
2023-02-16T00:25:13.918Z,5.40
2023-02-16T00:27:41.969Z,5.40
2023-02-16T00:30:15.921Z,6.60
2023-02-16T00:32:44.290Z,5.40
2023-02-16T00:35:15.929Z,5.70
2023-02-16T00:37:43.999Z,5.30
2023-02-16T00:40:14.659Z,5.30
2023-02-16T00:42:43.671Z,5.30
2023-02-16T00:45:17.694Z,6.10
2023-02-16T00:47:48.385Z,5.30
2023-02-16T00:50:19.450Z,5.30
2023-02-16T00:52:48.538Z,5.30
2023-02-16T00:55:20.317Z,5.30
2023-02-16T00:57:52.601Z,5.30
2023-02-16T01:00:24.573Z,5.30
2023-02-16T01:02:55.537Z,5.30
2023-02-16T01:05:24.158Z,5.20
2023-02-16T01:08:10.216Z,5.30
2023-02-16T01:11:07.044Z,5.70
2023-02-16T01:13:40.094Z,5.30
2023-02-16T01:16:14.627Z,5.30
2023-02-16T01:18:42.770Z,5.80
2023-02-16T01:21:11.130Z,5.30
2023-02-16T01:23:39.366Z,5.30
2023-02-16T01:26:14.466Z,5.30
2023-02-16T01:28:42.871Z,5.30
2023-02-16T01:31:11.821Z,5.70
2023-02-16T01:33:40.017Z,5.30
2023-02-16T01:36:18.469Z,5.80
2023-02-16T01:38:46.478Z,5.30
2023-02-16T01:41:23.838Z,5.30
2023-02-16T01:43:56.340Z,5.40
2023-02-16T01:46:31.026Z,5.40
2023-02-16T01:48:59.960Z,5.40
2023-02-16T01:51:33.064Z,6.30
2023-02-16T01:54:10.151Z,5.50
2023-02-16T01:56:47.348Z,5.40
2023-02-16T01:59:29.473Z,5.50
2023-02-16T02:01:59.572Z,6.10
2023-02-16T02:04:52.082Z,5.40
2023-02-16T02:07:26.817Z,5.40
2023-02-16T02:10:02.972Z,5.40
2023-02-16T02:12:38.478Z,5.50
2023-02-16T02:15:09.185Z,5.70
2023-02-16T02:17:37.382Z,5.50
2023-02-16T02:20:12.927Z,5.50
2023-02-16T02:23:30.638Z,5.60
2023-02-16T02:26:25.531Z,5.60
2023-02-16T02:29:07.881Z,5.60
2023-02-16T02:31:55.362Z,5.70
2023-02-16T02:34:34.011Z,5.70
2023-02-16T02:37:11.771Z,5.70
2023-02-16T02:39:52.958Z,5.50
2023-02-16T02:42:26.813Z,5.80
2023-02-16T02:44:58.471Z,6.20
2023-02-16T02:47:38.756Z,5.80
2023-02-16T02:51:02.547Z,5.70
2023-02-16T02:53:31.230Z,5.80
2023-02-16T02:56:19.521Z,5.80
2023-02-16T02:59:06.279Z,5.80
2023-02-16T03:01:38.529Z,5.80
2023-02-16T03:04:09.434Z,5.80
2023-02-16T03:06:42.224Z,5.90
2023-02-16T03:09:14.201Z,5.90
2023-02-16T03:12:01.580Z,5.90
2023-02-16T03:14:33.626Z,5.80
2023-02-16T03:17:23.811Z,5.90
2023-02-16T03:20:10.365Z,5.90
2023-02-16T03:22:57.902Z,5.90
2023-02-16T03:25:45.516Z,5.90
2023-02-16T03:28:32.762Z,5.90
2023-02-16T03:31:03.611Z,5.90
2023-02-16T03:33:34.183Z,5.90
2023-02-16T03:36:03.401Z,6.70
2023-02-16T03:38:31.810Z,6.00
2023-02-16T03:41:00.087Z,6.00
2023-02-16T03:43:29.810Z,6.10
2023-02-16T03:45:57.985Z,7.00
2023-02-16T03:48:26.115Z,6.90
2023-02-16T03:50:55.567Z,7.40
2023-02-16T03:53:23.629Z,6.60
2023-02-16T03:55:51.683Z,7.30
2023-02-16T03:58:21.862Z,6.90
2023-02-16T04:00:50.248Z,6.30
2023-02-16T04:03:18.310Z,5.80
2023-02-16T04:05:46.428Z,6.20
2023-02-16T04:08:15.851Z,6.20
2023-02-16T04:10:43.949Z,6.40
2023-02-16T04:13:11.021Z,6.30
2023-02-16T04:15:39.081Z,6.90
2023-02-16T04:18:07.126Z,6.40
2023-02-16T04:20:36.608Z,6.70
2023-02-16T04:23:05.221Z,6.70
2023-02-16T04:25:34.935Z,6.40
2023-02-16T04:28:02.971Z,6.40
2023-02-16T04:30:32.279Z,6.80
2023-02-16T04:33:00.420Z,6.30
2023-02-16T04:35:28.536Z,6.40
2023-02-16T04:37:56.527Z,6.40
2023-02-16T04:40:24.659Z,6.40
2023-02-16T04:42:54.021Z,7.30
2023-02-16T04:45:22.292Z,6.40
2023-02-16T04:47:50.339Z,6.30
2023-02-16T04:50:18.581Z,6.30
2023-02-16T04:52:46.649Z,6.40
2023-02-16T04:55:14.670Z,6.40
2023-02-16T04:57:42.795Z,6.40
2023-02-16T05:00:13.713Z,6.90
2023-02-16T05:02:41.774Z,6.40
2023-02-16T05:05:10.461Z,6.40
2023-02-16T05:07:38.441Z,6.40
2023-02-16T05:10:08.265Z,6.40
2023-02-16T05:12:53.964Z,6.40
2023-02-16T05:15:23.350Z,6.40
2023-02-16T05:17:51.436Z,6.40
2023-02-16T05:20:19.889Z,6.50
2023-02-16T05:22:48.113Z,6.60
2023-02-16T05:25:16.160Z,6.90
2023-02-16T05:27:44.429Z,6.50
2023-02-16T05:30:14.447Z,6.60
2023-02-16T05:32:44.136Z,6.60
2023-02-16T05:35:12.174Z,6.60
2023-02-16T05:37:42.439Z,6.80
2023-02-16T05:40:12.280Z,7.20
2023-02-16T05:42:40.342Z,6.60
2023-02-16T05:45:09.100Z,6.90
2023-02-16T05:47:37.165Z,6.70
2023-02-16T05:50:07.852Z,7.70
2023-02-16T05:52:35.905Z,6.70
2023-02-16T05:55:03.965Z,7.30
2023-02-16T05:57:34.874Z,7.10
2023-02-16T06:00:03.359Z,6.80
2023-02-16T06:02:31.634Z,6.70
2023-02-16T06:04:59.704Z,6.70
2023-02-16T06:07:29.084Z,7.40
2023-02-16T06:09:57.095Z,7.30
2023-02-16T06:12:25.123Z,7.50
2023-02-16T06:14:53.144Z,7.00
2023-02-16T06:17:21.224Z,6.90
2023-02-16T06:19:49.216Z,7.20
2023-02-16T06:22:17.203Z,6.80
2023-02-16T06:24:46.603Z,7.10
2023-02-16T06:27:14.668Z,7.90
2023-02-16T06:29:42.666Z,6.90
2023-02-16T06:32:10.888Z,6.80
2023-02-16T06:34:38.974Z,6.80
2023-02-16T06:37:07.022Z,6.80
2023-02-16T06:39:38.461Z,7.10
2023-02-16T06:42:07.893Z,6.80
2023-02-16T06:44:35.908Z,7.30
2023-02-16T06:47:03.923Z,7.20
2023-02-16T06:49:32.093Z,6.90
2023-02-16T06:52:00.323Z,7.40
2023-02-16T06:54:28.375Z,6.90
2023-02-16T06:56:56.347Z,8.00
2023-02-16T06:59:25.743Z,6.90
2023-02-16T07:01:53.818Z,6.90
2023-02-16T07:04:21.862Z,7.90
2023-02-16T07:06:50.003Z,7.10
2023-02-16T07:09:18.290Z,7.40
2023-02-16T07:11:46.358Z,6.90
2023-02-16T07:14:14.331Z,7.00
2023-02-16T07:16:43.749Z,7.20
2023-02-16T07:19:11.879Z,7.10
2023-02-16T07:21:39.890Z,7.00
2023-02-16T07:24:08.471Z,7.80
2023-02-16T07:26:38.699Z,7.00
2023-02-16T07:29:06.777Z,7.10
2023-02-16T07:31:34.883Z,7.70
2023-02-16T07:34:04.342Z,7.00
2023-02-16T07:36:32.349Z,7.00
2023-02-16T07:39:00.367Z,7.00
2023-02-16T07:41:28.495Z,7.20
2023-02-16T07:43:56.486Z,7.10
2023-02-16T07:46:24.642Z,7.20
2023-02-16T07:48:52.671Z,7.10
2023-02-16T07:51:25.995Z,7.20
2023-02-16T07:53:54.623Z,7.60
2023-02-16T07:56:24.900Z,7.90
2023-02-16T07:58:53.351Z,7.10
2023-02-16T08:01:21.669Z,7.60
2023-02-16T08:03:50.048Z,7.10
2023-02-16T08:06:18.314Z,7.10
2023-02-16T08:08:47.754Z,7.60
2023-02-16T08:11:18.007Z,7.90
2023-02-16T08:13:46.532Z,7.20
2023-02-16T08:16:17.067Z,7.00
2023-02-16T08:18:45.281Z,7.70
2023-02-16T08:21:16.128Z,7.10
2023-02-16T08:23:47.655Z,7.00
2023-02-16T08:26:18.219Z,7.40
2023-02-16T08:28:47.137Z,7.00
2023-02-16T08:31:15.236Z,7.10
2023-02-16T08:33:44.025Z,7.00
2023-02-16T08:36:18.315Z,7.10
2023-02-16T08:38:46.497Z,7.40
2023-02-16T08:41:16.019Z,7.10
2023-02-16T08:43:44.048Z,7.40
2023-02-16T08:46:12.226Z,7.20
2023-02-16T08:48:40.434Z,7.50
2023-02-16T08:51:09.983Z,7.30
2023-02-16T08:53:38.024Z,8.40
2023-02-16T08:56:06.972Z,7.40
2023-02-16T08:58:37.118Z,7.30
2023-02-16T09:01:06.255Z,7.30
2023-02-16T09:03:34.282Z,7.30
2023-02-16T09:06:04.960Z,7.40
2023-02-16T09:08:33.988Z,7.40
2023-02-16T09:11:03.250Z,7.40
2023-02-16T09:13:31.440Z,7.40
2023-02-16T09:16:05.338Z,7.80
2023-02-16T09:18:33.743Z,7.50
2023-02-16T09:21:06.882Z,7.60
2023-02-16T09:23:35.774Z,7.40
2023-02-16T09:26:07.032Z,7.70
2023-02-16T09:28:35.346Z,7.50
2023-02-16T09:31:11.483Z,7.50
2023-02-16T09:33:40.058Z,7.60
2023-02-16T09:36:10.022Z,7.90
2023-02-16T09:38:40.466Z,7.70
2023-02-16T09:41:11.764Z,8.00
2023-02-16T09:43:50.713Z,7.90
2023-02-16T09:46:23.524Z,8.00
2023-02-16T09:48:53.185Z,8.40
2023-02-16T09:51:33.761Z,8.10
2023-02-16T09:54:14.323Z,8.10
2023-02-16T09:56:50.334Z,9.10
2023-02-16T09:59:41.025Z,8.30
2023-02-16T10:02:28.638Z,8.90
2023-02-16T10:05:09.759Z,8.50
2023-02-16T10:07:46.959Z,8.50
2023-02-16T10:10:19.818Z,8.50
2023-02-16T10:12:51.648Z,8.50
2023-02-16T10:15:23.450Z,8.50
2023-02-16T10:17:58.791Z,8.70
2023-02-16T10:20:32.725Z,8.70
2023-02-16T10:23:08.745Z,8.80
2023-02-16T10:25:43.696Z,8.80
2023-02-16T10:28:18.147Z,9.60
2023-02-16T10:30:51.893Z,8.90
2023-02-16T10:33:35.718Z,9.30
2023-02-16T10:36:16.273Z,8.90
2023-02-16T10:38:49.227Z,9.00
2023-02-16T10:41:31.595Z,9.00
2023-02-16T10:44:04.646Z,9.90
2023-02-16T10:46:37.744Z,9.20
2023-02-16T10:49:12.353Z,9.20
2023-02-16T10:51:42.699Z,9.20
2023-02-16T10:54:17.565Z,9.20
2023-02-16T10:56:52.397Z,9.40
2023-02-16T10:59:22.580Z,9.40
2023-02-16T11:01:54.024Z,9.40
2023-02-16T11:04:35.792Z,9.50
2023-02-16T11:07:06.783Z,10.00
2023-02-16T11:09:35.568Z,9.70
2023-02-16T11:12:14.439Z,9.80
2023-02-16T11:14:49.824Z,9.80
2023-02-16T11:17:21.027Z,9.90
2023-02-16T11:19:54.728Z,10.00
2023-02-16T11:22:29.345Z,10.00
2023-02-16T11:24:59.351Z,10.00
2023-02-16T11:27:27.409Z,10.10
2023-02-16T11:30:22.391Z,10.20
2023-02-16T11:32:51.585Z,10.20
2023-02-16T11:35:21.161Z,10.30
2023-02-16T11:37:49.506Z,10.30
2023-02-16T11:40:24.373Z,10.40
2023-02-16T11:42:54.823Z,10.50
2023-02-16T11:45:27.166Z,10.50
2023-02-16T11:47:57.782Z,10.50
2023-02-16T11:50:29.795Z,10.70
2023-02-16T11:53:00.605Z,10.60
2023-02-16T11:55:33.310Z,10.70
2023-02-16T11:58:20.129Z,10.90
2023-02-16T12:01:01.656Z,10.90
2023-02-16T12:03:54.286Z,11.00
2023-02-16T12:06:35.546Z,11.00
2023-02-16T12:09:17.952Z,11.10
2023-02-16T12:11:49.018Z,11.20
2023-02-16T12:14:41.145Z,11.30
2023-02-16T12:17:22.849Z,11.30
2023-02-16T12:19:57.334Z,11.40
2023-02-16T12:22:37.282Z,11.50
2023-02-16T12:25:23.681Z,11.40
2023-02-16T12:27:56.933Z,11.50
2023-02-16T12:30:37.186Z,11.50
2023-02-16T12:33:28.356Z,11.50
2023-02-16T12:36:17.995Z,11.60
2023-02-16T12:39:00.748Z,11.60
2023-02-16T12:41:40.127Z,11.60
2023-02-16T12:44:16.472Z,11.60
2023-02-16T12:46:46.851Z,11.60
2023-02-16T12:49:19.238Z,11.60
2023-02-16T12:51:51.591Z,11.60
2023-02-16T12:54:26.981Z,11.60
2023-02-16T12:57:00.826Z,11.60
2023-02-16T12:59:38.627Z,11.60
2023-02-16T13:02:15.963Z,11.60
2023-02-16T13:04:50.363Z,11.60
2023-02-16T13:07:26.108Z,11.70
2023-02-16T13:10:03.297Z,11.70
2023-02-16T13:12:35.982Z,11.80
2023-02-16T13:15:10.979Z,11.70
2023-02-16T13:17:43.004Z,11.80
2023-02-16T13:20:16.647Z,11.80
2023-02-16T13:23:04.748Z,11.80
2023-02-16T13:25:56.861Z,11.80
2023-02-16T13:28:44.098Z,11.80
2023-02-16T13:31:30.105Z,11.90
2023-02-16T13:34:14.916Z,11.90
2023-02-16T13:37:05.663Z,11.90
2023-02-16T13:39:43.538Z,11.80
2023-02-16T13:42:36.787Z,11.80
2023-02-16T13:45:12.964Z,11.80
2023-02-16T13:47:42.387Z,11.80
2023-02-16T13:50:28.132Z,11.80
2023-02-16T13:52:58.564Z,11.90
2023-02-16T13:55:31.297Z,12.00
2023-02-16T13:58:24.840Z,11.90
2023-02-16T14:00:53.115Z,11.90
2023-02-16T14:03:38.681Z,12.00
2023-02-16T14:06:32.309Z,11.90
2023-02-16T14:09:37.086Z,11.90
2023-02-16T14:12:15.437Z,11.80
2023-02-16T14:14:56.898Z,11.80
2023-02-16T14:17:28.301Z,11.70
2023-02-16T14:19:59.734Z,11.80
2023-02-16T14:22:35.348Z,11.70
2023-02-16T14:25:07.275Z,11.70
2023-02-16T14:27:45.136Z,11.60
2023-02-16T14:30:22.837Z,11.60
2023-02-16T14:32:57.606Z,11.50
2023-02-16T14:35:30.143Z,11.40
2023-02-16T14:38:00.249Z,11.40
2023-02-16T14:40:53.253Z,11.30
2023-02-16T14:43:28.249Z,11.30
2023-02-16T14:46:35.148Z,11.20
2023-02-16T14:49:35.827Z,11.20
2023-02-16T14:52:51.408Z,11.10
2023-02-16T14:55:48.238Z,11.10
2023-02-16T14:58:39.124Z,11.10
2023-02-16T15:01:12.673Z,11.10
2023-02-16T15:03:45.385Z,11.00
2023-02-16T15:06:22.021Z,11.00
2023-02-16T15:08:57.395Z,11.00
2023-02-16T15:11:30.918Z,11.00
2023-02-16T15:14:07.864Z,10.90
2023-02-16T15:16:38.987Z,10.90
2023-02-16T15:19:12.203Z,10.80
2023-02-16T15:21:40.314Z,10.80
2023-02-16T15:24:23.202Z,10.80
2023-02-16T15:26:57.092Z,10.80
2023-02-16T15:29:27.249Z,11.20
2023-02-16T15:31:56.803Z,10.70
2023-02-16T15:34:33.313Z,10.80
2023-02-16T15:37:02.496Z,10.70
2023-02-16T15:39:45.116Z,10.80
2023-02-16T15:42:23.631Z,10.60
2023-02-16T15:44:52.514Z,10.60
2023-02-16T15:47:24.349Z,11.40
2023-02-16T15:49:54.679Z,10.50
2023-02-16T15:52:30.119Z,10.50
2023-02-16T15:54:58.548Z,10.50
2023-02-16T15:57:30.933Z,10.40
2023-02-16T16:00:01.043Z,10.40
2023-02-16T16:02:36.750Z,10.30
2023-02-16T16:05:09.673Z,10.30
2023-02-16T16:07:39.963Z,10.30
2023-02-16T16:10:17.214Z,10.30
2023-02-16T16:12:46.692Z,10.30
2023-02-16T16:15:22.819Z,10.20
2023-02-16T16:17:52.144Z,10.20
2023-02-16T16:20:28.373Z,10.20
2023-02-16T16:22:58.557Z,10.10
2023-02-16T16:25:40.200Z,10.10
2023-02-16T16:28:12.157Z,10.10
2023-02-16T16:30:43.965Z,10.10
2023-02-16T16:33:13.979Z,10.00
2023-02-16T16:35:44.890Z,10.10
2023-02-16T16:38:24.630Z,10.00
2023-02-16T16:40:54.622Z,10.10
2023-02-16T16:43:25.603Z,10.60
2023-02-16T16:45:58.165Z,10.00
2023-02-16T16:48:29.619Z,10.00
2023-02-16T16:51:13.223Z,10.10
2023-02-16T16:53:52.858Z,10.00
2023-02-16T16:56:22.219Z,9.90
2023-02-16T16:58:51.608Z,9.90
2023-02-16T17:01:20.407Z,10.40
2023-02-16T17:03:49.064Z,9.90
2023-02-16T17:06:19.900Z,9.90
2023-02-16T17:08:48.016Z,9.90
2023-02-16T17:11:24.379Z,9.90
2023-02-16T17:13:54.735Z,9.90
2023-02-16T17:16:27.149Z,9.90
2023-02-16T17:18:55.017Z,9.80
2023-02-16T17:21:24.421Z,10.50
2023-02-16T17:23:53.683Z,9.80
2023-02-16T17:26:22.217Z,10.00
2023-02-16T17:28:50.822Z,9.80
2023-02-16T17:31:19.022Z,9.80
2023-02-16T17:33:47.101Z,9.80
2023-02-16T17:36:16.652Z,9.80
2023-02-16T17:38:46.273Z,9.80
2023-02-16T17:41:20.989Z,10.40
2023-02-16T17:43:49.332Z,9.70
2023-02-16T17:46:18.240Z,10.10
2023-02-16T17:48:49.498Z,9.90
2023-02-16T17:51:19.559Z,9.80
2023-02-16T17:53:49.234Z,10.70
2023-02-16T17:56:21.351Z,9.70
2023-02-16T17:58:49.396Z,10.20
2023-02-16T18:01:18.926Z,10.50
2023-02-16T18:03:47.034Z,9.80
2023-02-16T18:06:16.234Z,9.70
2023-02-16T18:08:44.792Z,9.80
2023-02-16T18:11:14.733Z,9.80
2023-02-16T18:13:42.800Z,9.90
2023-02-16T18:16:14.662Z,9.90
2023-02-16T18:18:42.723Z,9.80
2023-02-16T18:21:11.000Z,9.80
2023-02-16T18:23:39.370Z,9.90
2023-02-16T18:26:07.989Z,10.60
2023-02-16T18:28:37.402Z,10.60
2023-02-16T18:31:07.363Z,9.80
2023-02-16T18:33:35.905Z,9.80
2023-02-16T18:36:04.862Z,9.80
2023-02-16T18:38:33.098Z,9.80
2023-02-16T18:41:01.152Z,9.80
2023-02-16T18:43:29.259Z,10.60
2023-02-16T18:45:58.955Z,9.80
2023-02-16T18:48:26.982Z,9.80
2023-02-16T18:50:54.989Z,9.80
2023-02-16T18:53:23.061Z,9.80
2023-02-16T18:55:51.153Z,9.90
2023-02-16T18:58:19.350Z,9.80
2023-02-16T19:00:48.714Z,9.80
2023-02-16T19:03:18.293Z,9.80
2023-02-16T19:05:46.539Z,10.00
2023-02-16T19:08:15.277Z,9.80
2023-02-16T19:10:43.519Z,10.30
2023-02-16T19:13:11.558Z,9.90
2023-02-16T19:15:39.626Z,9.80
2023-02-16T19:18:07.751Z,9.80
2023-02-16T19:20:37.323Z,10.70
2023-02-16T19:23:05.377Z,9.80
2023-02-16T19:25:33.927Z,9.90
2023-02-16T19:28:01.969Z,9.90
2023-02-16T19:30:30.059Z,9.90
2023-02-16T19:32:58.241Z,9.90
2023-02-16T19:35:26.251Z,9.90
2023-02-16T19:37:55.917Z,10.00
2023-02-16T19:40:24.157Z,9.90
2023-02-16T19:42:52.392Z,9.90
2023-02-16T19:45:20.563Z,9.90
2023-02-16T19:47:51.024Z,9.90
2023-02-16T19:50:19.288Z,9.90
2023-02-16T19:52:47.379Z,9.90
2023-02-16T19:55:16.900Z,10.70
2023-02-16T19:57:44.926Z,9.80
2023-02-16T20:00:14.177Z,9.90
2023-02-16T20:02:42.182Z,9.90
2023-02-16T20:05:11.193Z,9.80
2023-02-16T20:07:39.183Z,9.80
2023-02-16T20:10:08.600Z,9.80
2023-02-16T20:12:38.019Z,9.90
2023-02-16T20:15:07.050Z,9.80
2023-02-16T20:17:35.354Z,9.80
2023-02-16T20:20:05.266Z,9.80
2023-02-16T20:22:33.757Z,9.80
2023-02-16T20:25:02.456Z,9.90
2023-02-16T20:27:30.773Z,9.80
2023-02-16T20:30:00.615Z,9.80
2023-02-16T20:32:31.329Z,9.80
2023-02-16T20:34:59.747Z,9.80
2023-02-16T20:37:27.814Z,9.90
2023-02-16T20:39:55.911Z,9.80
2023-02-16T20:42:23.997Z,9.80
2023-02-16T20:44:52.023Z,9.90
2023-02-16T20:47:21.439Z,9.80
2023-02-16T20:49:49.472Z,9.90
2023-02-16T20:52:17.665Z,9.80
2023-02-16T20:54:45.758Z,9.80
2023-02-16T20:57:26.033Z,9.80
2023-02-16T20:59:55.540Z,9.80
2023-02-16T21:02:25.283Z,9.80
2023-02-16T21:04:53.825Z,9.90
2023-02-16T21:07:22.101Z,9.80
2023-02-16T21:09:50.207Z,9.70
2023-02-16T21:12:18.487Z,9.80
2023-02-16T21:14:46.777Z,9.80
2023-02-16T21:17:15.482Z,9.80
2023-02-16T21:19:44.975Z,9.80
2023-02-16T21:22:13.084Z,9.80
2023-02-16T21:24:43.404Z,9.80
2023-02-16T21:27:12.050Z,9.90
2023-02-16T21:29:40.188Z,9.80
2023-02-16T21:32:08.580Z,9.80
2023-02-16T21:34:36.833Z,9.80
2023-02-16T21:37:06.566Z,9.80
2023-02-16T21:39:52.208Z,9.80
2023-02-16T21:42:20.198Z,10.20
2023-02-16T21:44:50.053Z,9.70
2023-02-16T21:47:35.445Z,9.70
2023-02-16T21:50:03.491Z,9.80
2023-02-16T21:52:32.975Z,9.80
2023-02-16T21:55:18.511Z,10.20
2023-02-16T21:57:46.587Z,9.70
2023-02-16T22:00:15.959Z,9.70
2023-02-16T22:02:43.924Z,9.70
2023-02-16T22:05:13.628Z,9.70
2023-02-16T22:07:43.216Z,9.70
2023-02-16T22:10:11.497Z,9.70
2023-02-16T22:12:39.566Z,9.70
2023-02-16T22:15:08.300Z,9.70
2023-02-16T22:17:36.529Z,9.70
2023-02-16T22:20:05.481Z,9.70
2023-02-16T22:22:33.487Z,9.70
2023-02-16T22:25:02.942Z,9.70
2023-02-16T22:27:31.055Z,9.70
2023-02-16T22:29:59.192Z,9.70
2023-02-16T22:32:27.249Z,9.70
2023-02-16T22:34:55.652Z,9.70
2023-02-16T22:37:23.848Z,9.70
2023-02-16T22:39:55.048Z,9.80
2023-02-16T22:42:24.606Z,9.70
2023-02-16T22:44:52.685Z,9.90
2023-02-16T22:47:20.782Z,9.70
2023-02-16T22:49:48.796Z,9.70
2023-02-16T22:52:16.869Z,10.00
2023-02-16T22:54:45.059Z,9.60
2023-02-16T22:57:13.159Z,9.60
2023-02-16T22:59:42.601Z,9.70
2023-02-16T23:02:10.608Z,10.40
2023-02-16T23:04:38.635Z,9.90
2023-02-16T23:07:06.705Z,10.30
2023-02-16T23:09:34.727Z,9.60
2023-02-16T23:12:02.830Z,9.60
2023-02-16T23:14:30.998Z,9.60
2023-02-16T23:17:00.454Z,10.40
2023-02-16T23:19:28.562Z,9.60
2023-02-16T23:21:56.595Z,9.70
2023-02-16T23:24:25.080Z,9.60
2023-02-16T23:26:53.665Z,9.60
2023-02-16T23:29:21.754Z,9.50
2023-02-16T23:31:49.956Z,9.60
2023-02-16T23:34:20.386Z,9.50
2023-02-16T23:36:48.595Z,9.50
2023-02-16T23:39:18.596Z,9.50
2023-02-16T23:41:47.151Z,9.50
2023-02-16T23:44:16.044Z,9.40
2023-02-16T23:46:44.241Z,9.40
2023-02-16T23:49:12.260Z,10.00
2023-02-16T23:51:41.722Z,9.30
2023-02-16T23:54:11.516Z,9.30
2023-02-16T23:56:41.302Z,10.10
2023-02-16T23:59:09.344Z,9.20
